Terminal Aerodrome Forecast
Issued by NWS

Home | Current Version | Previous Version | Text Only | Print | Product List | Glossary On
Versions: 1 2 3 4 5 6 7 8 9 10 11 12 13 14 15 16 17 18 19 20 21
895
FTUS43 KOAX 180638 AAA
TAFCDR
TAF AMD
KCDR 180638Z 1807/1906 VRB05KT P6SM VCTS SCT080CB BKN120
     FM181000 00000KT P6SM SCT050
     FM181800 03006KT P6SM SCT050=

USA.gov is the U.S. government's official web portal to all federal, state and local government web resources and services.